createdAt,value
2022-08-01T00:04:42.261Z,77.50
2022-08-01T00:09:46.934Z,77.30
2022-08-01T00:14:50.275Z,78.10
2022-08-01T00:19:53.663Z,77.50
2022-08-01T00:24:58.365Z,78.00
2022-08-01T00:30:11.317Z,78.70
2022-08-01T00:35:17.492Z,79.40
2022-08-01T00:40:22.427Z,79.50
2022-08-01T00:45:25.907Z,80.10
2022-08-01T00:50:30.964Z,79.80
2022-08-01T00:55:36.140Z,78.80
2022-08-01T01:00:53.838Z,79.80
2022-08-01T01:06:07.378Z,80.20
2022-08-01T01:11:16.624Z,81.10
2022-08-01T01:16:21.305Z,82.40
2022-08-01T01:21:49.888Z,82.20
2022-08-01T01:26:59.667Z,82.90
2022-08-01T01:32:08.803Z,83.70
2022-08-01T01:37:17.134Z,83.50
2022-08-01T01:42:22.228Z,85.10
2022-08-01T01:47:27.847Z,85.00
2022-08-01T01:52:33.929Z,85.40
2022-08-01T01:57:41.054Z,84.90
2022-08-01T02:02:46.748Z,85.90
2022-08-01T02:07:52.420Z,86.60
2022-08-01T02:13:05.489Z,86.20
2022-08-01T02:18:12.626Z,86.80
2022-08-01T02:23:16.081Z,87.80
2022-08-01T02:28:24.089Z,87.30
2022-08-01T02:33:39.110Z,87.00
2022-08-01T02:38:46.280Z,87.60
2022-08-01T02:43:54.248Z,88.20
2022-08-01T02:49:03.079Z,88.40
2022-08-01T02:54:09.065Z,87.70
2022-08-01T02:59:16.478Z,87.50
2022-08-01T03:04:27.584Z,87.90
2022-08-01T03:09:34.283Z,88.00
2022-08-01T03:14:40.868Z,87.90
2022-08-01T03:19:47.854Z,87.90
2022-08-01T03:24:54.181Z,88.40
2022-08-01T03:30:00.585Z,88.30
2022-08-01T03:35:06.184Z,87.70
2022-08-01T03:40:15.877Z,88.00
2022-08-01T03:45:23.621Z,88.30
2022-08-01T03:50:30.492Z,89.30
2022-08-01T03:55:35.155Z,90.10
2022-08-01T04:00:40.309Z,90.60
2022-08-01T04:05:45.904Z,90.70
2022-08-01T04:10:50.303Z,90.60
2022-08-01T04:15:53.733Z,90.30
2022-08-01T04:20:58.885Z,90.20
2022-08-01T04:26:06.207Z,90.20
2022-08-01T04:31:12.431Z,89.40
2022-08-01T04:36:20.326Z,89.50
2022-08-01T04:41:24.693Z,89.30
2022-08-01T04:46:29.692Z,89.90
2022-08-01T04:51:34.321Z,89.20
2022-08-01T04:56:37.621Z,88.50
2022-08-01T05:01:41.052Z,88.50
2022-08-01T05:06:45.814Z,88.40
2022-08-01T05:11:49.101Z,88.40
2022-08-01T05:16:52.540Z,88.10
2022-08-01T05:22:01.952Z,88.30
2022-08-01T05:27:06.134Z,88.60
2022-08-01T05:32:10.969Z,89.00
2022-08-01T05:37:15.673Z,88.90
2022-08-01T05:42:19.007Z,89.20
2022-08-01T05:47:22.318Z,88.90
2022-08-01T05:52:26.983Z,89.00
2022-08-01T05:57:30.290Z,87.40
2022-08-01T06:02:33.688Z,87.40
2022-08-01T06:07:39.639Z,87.20
2022-08-01T06:12:43.676Z,87.30
2022-08-01T06:17:46.971Z,87.70
2022-08-01T06:22:52.805Z,88.60
2022-08-01T06:27:56.157Z,86.50
2022-08-01T06:32:59.719Z,83.50
2022-08-01T06:38:04.636Z,80.30
2022-08-01T06:43:07.911Z,80.20
2022-08-01T06:48:11.245Z,77.10
2022-08-01T06:53:15.926Z,78.70
2022-08-01T06:58:19.198Z,78.30
2022-08-01T07:03:23.384Z,77.90
2022-08-01T07:08:28.093Z,78.20
2022-08-01T07:13:36.615Z,77.00
2022-08-01T07:18:47.567Z,77.00
2022-08-01T07:23:52.238Z,75.30
2022-08-01T07:28:59.247Z,74.60
2022-08-01T07:34:03.091Z,74.10
2022-08-01T07:39:07.953Z,76.10
2022-08-01T07:44:15.336Z,74.10
2022-08-01T07:49:18.698Z,69.70
2022-08-01T07:54:33.382Z,71.20
2022-08-01T07:59:38.022Z,74.50
2022-08-01T08:04:43.690Z,73.70
2022-08-01T08:09:51.793Z,74.10
2022-08-01T08:14:56.262Z,72.80
2022-08-01T08:20:00.919Z,72.60
2022-08-01T08:25:07.741Z,74.60
2022-08-01T08:30:12.545Z,73.80
2022-08-01T08:35:20.112Z,73.50
2022-08-01T08:40:32.325Z,75.80
2022-08-01T08:45:58.693Z,75.00
2022-08-01T08:51:01.664Z,75.20
2022-08-01T08:56:10.052Z,75.20
2022-08-01T09:01:13.636Z,73.10
2022-08-01T09:06:17.006Z,72.60
2022-08-01T09:11:22.938Z,73.20
2022-08-01T09:16:26.605Z,72.70
2022-08-01T09:21:30.056Z,71.70
2022-08-01T09:26:40.354Z,73.30
2022-08-01T09:31:47.577Z,71.20
2022-08-01T09:36:55.394Z,68.00
2022-08-01T09:42:01.810Z,62.80
2022-08-01T09:47:07.653Z,66.20
2022-08-01T09:52:17.038Z,67.60
2022-08-01T09:57:23.584Z,66.60
2022-08-01T10:02:34.127Z,65.50
2022-08-01T10:07:58.041Z,65.50
2022-08-01T10:13:03.587Z,65.40
2022-08-01T10:18:16.104Z,59.00
2022-08-01T10:23:40.237Z,60.10
2022-08-01T10:28:50.570Z,62.60
2022-08-01T10:33:55.710Z,63.30
2022-08-01T10:39:01.352Z,65.40
2022-08-01T10:44:09.479Z,63.30
2022-08-01T10:49:16.071Z,63.30
2022-08-01T10:54:19.584Z,64.00
2022-08-01T10:59:50.430Z,60.70
2022-08-01T11:04:58.168Z,56.30
2022-08-01T11:10:15.157Z,61.40
2022-08-01T11:15:32.428Z,62.30
2022-08-01T11:20:42.485Z,64.30
2022-08-01T11:26:17.638Z,63.90
2022-08-01T11:31:37.616Z,64.30
2022-08-01T11:36:58.300Z,61.90
2022-08-01T11:42:21.509Z,55.80
2022-08-01T11:47:47.654Z,60.30
2022-08-01T11:52:59.918Z,57.30
2022-08-01T11:58:04.994Z,51.70
2022-08-01T12:03:14.080Z,52.10
2022-08-01T12:08:28.443Z,51.70
2022-08-01T12:13:42.598Z,53.20
2022-08-01T12:18:47.303Z,47.70
2022-08-01T12:24:02.835Z,47.80
2022-08-01T12:29:06.361Z,48.50
2022-08-01T12:34:30.389Z,49.60
2022-08-01T12:39:38.386Z,52.40
2022-08-01T12:44:48.236Z,53.50
2022-08-01T12:49:53.554Z,54.50
2022-08-01T12:55:11.783Z,54.10
2022-08-01T13:00:18.462Z,53.30
2022-08-01T13:05:27.944Z,53.70
2022-08-01T13:10:33.044Z,53.00
2022-08-01T13:15:41.724Z,49.60
2022-08-01T13:20:52.243Z,43.80
2022-08-01T13:25:57.923Z,42.90
2022-08-01T13:31:02.575Z,40.60
2022-08-01T13:36:07.919Z,38.30
2022-08-01T13:41:11.323Z,38.30
2022-08-01T13:46:14.718Z,40.00
2022-08-01T13:51:23.440Z,37.70
2022-08-01T13:56:28.580Z,38.40
2022-08-01T14:01:34.415Z,40.20
2022-08-01T14:06:39.550Z,39.20
2022-08-01T14:11:46.123Z,37.90
2022-08-01T14:16:49.487Z,38.30
2022-08-01T14:21:55.382Z,39.70
2022-08-01T14:26:58.778Z,36.60
2022-08-01T14:32:02.138Z,40.70
2022-08-01T14:37:06.834Z,36.60
2022-08-01T14:42:11.508Z,37.80
2022-08-01T14:47:16.173Z,39.60
2022-08-01T14:52:26.909Z,39.50
2022-08-01T14:57:31.207Z,40.30
2022-08-01T15:02:34.531Z,40.90
2022-08-01T15:07:42.039Z,41.00
2022-08-01T15:12:56.656Z,43.50
2022-08-01T15:18:00.288Z,41.60
2022-08-01T15:23:05.120Z,39.90
2022-08-01T15:28:09.326Z,42.20
2022-08-01T15:33:13.439Z,39.80
2022-08-01T15:38:18.100Z,40.30
2022-08-01T15:43:21.418Z,38.80
2022-08-01T15:48:25.079Z,40.90
2022-08-01T15:53:29.721Z,39.90
2022-08-01T15:58:35.020Z,39.40
2022-08-01T16:03:38.426Z,36.90
2022-08-01T16:08:43.956Z,36.30
2022-08-01T16:13:49.409Z,39.90
2022-08-01T16:18:53.586Z,40.10
2022-08-01T16:23:59.124Z,40.80
2022-08-01T16:29:02.387Z,43.00
2022-08-01T16:34:05.703Z,43.90
2022-08-01T16:39:10.487Z,42.80
2022-08-01T16:44:14.405Z,43.50
2022-08-01T16:49:17.911Z,44.40
2022-08-01T16:54:25.830Z,46.50
2022-08-01T16:59:29.689Z,46.70
2022-08-01T17:04:33.976Z,47.00
2022-08-01T17:09:42.925Z,48.00
2022-08-01T17:14:46.997Z,47.70
2022-08-01T17:19:50.934Z,48.30
2022-08-01T17:24:55.870Z,48.70
2022-08-01T17:29:59.274Z,50.00
2022-08-01T17:35:02.646Z,54.70
2022-08-01T17:40:30.709Z,57.30
2022-08-01T17:45:32.294Z,58.20
2022-08-01T17:50:44.813Z,61.60
2022-08-01T17:55:56.078Z,63.00
2022-08-01T18:01:00.550Z,64.10
2022-08-01T18:06:04.132Z,64.90
2022-08-01T18:11:09.446Z,65.60
2022-08-01T18:16:13.649Z,66.00
2022-08-01T18:21:17.153Z,66.60
2022-08-01T18:26:22.659Z,67.00
2022-08-01T18:31:25.941Z,67.00
2022-08-01T18:36:31.736Z,67.30
2022-08-01T18:41:39.427Z,67.70
2022-08-01T18:46:42.915Z,68.20
2022-08-01T18:51:47.409Z,68.70
2022-08-01T18:56:52.187Z,69.40
2022-08-01T19:01:55.566Z,69.40
2022-08-01T19:06:58.969Z,69.60
2022-08-01T19:12:04.249Z,69.90
2022-08-01T19:17:07.857Z,70.10
2022-08-01T19:22:11.730Z,69.90
2022-08-01T19:27:18.287Z,69.90
2022-08-01T19:32:22.811Z,70.30
2022-08-01T19:37:27.491Z,70.40
2022-08-01T19:42:32.258Z,70.20
2022-08-01T19:47:51.763Z,70.70
2022-08-01T19:53:03.124Z,71.20
2022-08-01T19:58:26.303Z,70.80
2022-08-01T20:03:32.698Z,70.90
2022-08-01T20:08:36.830Z,71.10
2022-08-01T20:13:42.324Z,71.30
2022-08-01T20:18:46.330Z,71.20
2022-08-01T20:23:53.394Z,71.20
2022-08-01T20:29:07.400Z,71.60
2022-08-01T20:34:15.483Z,71.70
2022-08-01T20:39:21.512Z,72.10
2022-08-01T20:44:31.680Z,72.30
2022-08-01T20:49:37.881Z,73.00
2022-08-01T20:54:43.870Z,73.60
2022-08-01T20:59:57.328Z,74.10
2022-08-01T21:05:06.585Z,73.90
2022-08-01T21:10:12.934Z,74.40
2022-08-01T21:15:28.341Z,74.50
2022-08-01T21:20:33.521Z,74.90
2022-08-01T21:25:37.386Z,75.00
2022-08-01T21:30:43.045Z,75.80
2022-08-01T21:36:05.841Z,76.50
2022-08-01T21:41:10.465Z,77.80
2022-08-01T21:46:17.104Z,79.40
2022-08-01T21:51:32.422Z,79.90
2022-08-01T21:56:43.096Z,80.30
2022-08-01T22:01:55.039Z,80.50
2022-08-01T22:07:04.080Z,80.30
2022-08-01T22:12:08.765Z,80.10
2022-08-01T22:17:18.604Z,80.00
2022-08-01T22:22:45.011Z,80.00
2022-08-01T22:28:03.245Z,81.30
2022-08-01T22:33:16.367Z,82.70
2022-08-01T22:38:22.549Z,83.90
2022-08-01T22:43:30.532Z,84.70
2022-08-01T22:48:42.826Z,85.50
2022-08-01T22:53:54.530Z,84.60
2022-08-01T22:59:00.151Z,85.30
2022-08-01T23:04:05.364Z,86.00
2022-08-01T23:09:09.965Z,86.80
2022-08-01T23:14:13.856Z,86.20
2022-08-01T23:19:20.001Z,87.10
2022-08-01T23:24:23.675Z,94.50
2022-08-01T23:29:27.955Z,99.90
2022-08-01T23:34:32.834Z,99.90
2022-08-01T23:39:36.266Z,99.90
2022-08-01T23:44:39.943Z,99.90
2022-08-01T23:49:53.225Z,99.90
2022-08-01T23:54:57.312Z,99.90
